SHMÚ vydal meteorologické výstrahy na Nízke teploty Zobraziť výstrahy

HYDROLOGICKÁ VÝSTRAHA 1. stupeň Zobraziť výstrahy

Smogová situácia PM10Nitra, Nitra Janíkovce, Topoľníky, Trenčín, Ružomberok, Veľká Ida Zobraziť

TAF

Letisková predpoveď TAF

Informácie o správe TAF

23.01.2017 - 05:00 UTC

TAF AMD LZTT 230952Z 2309/2406 VRB02KT 1500 BCFG OVC005
    TEMPO 2309/2311 0200 FZFG OVC001
    BECMG 2312/2314 26005KT 4000 BR BKN010
    BECMG 2318/2320 VRB02KT 1200 BCFG OVC005
    TEMPO 2400/2406 0100 VV001=

23.01.2017 - 08:00 UTC

TAF LZSL 230800Z 2309/2318 04005KT 9999 BKN010
    PROB40 TEMPO 2309/2311 6000 OVC008
    BECMG 2316/2318 VRB02KT 3000 BR SCT002 BKN005=
TAF LZPP 230800Z 2309/2318 16008KT 9999 BKN015
    PROB40 TEMPO 2309/2310 7000 BKN010
    TEMPO 2310/2315 15015KT SCT020=
TAF LZZI 230800Z 2309/2318 VRB02KT 1200 BCFG OVC004
    BECMG 2310/2312 3000 BR SCT003 BKN010
    TEMPO 2312/2316 26005KT 7000 SCT015=

23.01.2017 - 05:00 UTC

TAF AMD LZZI 230708Z 2307/2315 VRB02KT 1200 BR BKN005
    TEMPO 2307/2308 0500 FZFG OVC002
    BECMG 2310/2312 25004KT 5000 BR SCT010=

23.01.2017 - 05:00 UTC

TAF LZSL 230500Z 2306/2315 01005KT 7000 OVC005
    BECMG 2308/2310 SCT010=
TAF LZPP 230500Z 2306/2315 16008KT 9999 BKN015
    TEMPO 2306/2309 BKN006
    TEMPO 2310/2315 15015KT SCT020=
TAF LZZI 230500Z 2306/2315 VRB02KT 2000 BR SCT008
    PROB30 TEMPO 2306/2308 1200 BCFG BKN006
    BECMG 2308/2310 25004KT 6000 NSC=

23.01.2017 - 05:00 UTC

TAF LZIB 230500Z 2306/2406 14010KT 4000 BR BKN015
    PROB30 TEMPO 2306/2308 2500 BR BKN008
    BECMG 2308/2310 9999 FEW015
    BECMG 2321/2323 VRB02KT 3000 BR BKN010=
TAF LZKZ 230500Z 2306/2406 18005KT 5000 BR OVC012
    TEMPO 2306/2309 2500 BR OVC005
    BECMG 2309/2311 21006KT SCT015
    BECMG 2319/2321 VRB02KT 2500 BR
    TEMPO 2320/2406 1200 BCFG OVC004=
TAF LZTT 230500Z 2306/2406 27005KT 1500 BCFG OVC005
    TEMPO 2306/2309 0100 FZFG VV001
    BECMG 2309/2311 4000 BR BKN010
    PROB30 TEMPO 2312/2318 6000 SCT012
    BECMG 2318/2320 1200 BCFG OVC005=

23.01.2017 - 02:00 UTC

TAF LZSL 230200Z 2303/2312 VRB02KT 1500 BR OVC008
    TEMPO 2303/2309 0100 FZFG OVC001
    BECMG 2310/2312 6000 SCT010=
TAF LZZI 230200Z 2303/2312 VRB02KT 1200 BCFG SCT008
    TEMPO 2303/2309 0200 FZFG OVC002
    BECMG 2309/2311 4000 BR=

skok na menu ↑


skok na začiatok stránky ↑